Time;durP1;ratioP1;P1;durP2;ratioP2;P2;SDS_P1;SDS_P2;PMS_P1;PMS_P2;Temp;Humidity;BMP_temperature;BMP_pressure;BME280_temperature;BME280_humidity;BME280_pressure;Samples;Min_cycle;Max_cycle;Signal;HPM_P1;HPM_P2
2022/01/15 00:00:13;;;;;;;41.33;2.00;;;;;;;;;;4992418;28;20050;-83
2022/01/15 00:02:39;;;;;;;62.88;2.65;;;;;;;;;;5010777;28;20038;-86
2022/01/15 00:05:05;;;;;;;57.60;2.30;;;;;;;;;;5010084;28;20049;-85
2022/01/15 00:07:31;;;;;;;49.55;1.90;;;;;;;;;;5010402;28;21116;-84
2022/01/15 00:09:57;;;;;;;44.00;1.80;;;;;;;;;;5010255;28;20508;-85
2022/01/15 00:12:23;;;;;;;41.17;1.70;;;;;;;;;;4994453;28;20070;-85
2022/01/15 00:14:51;;;;;;;32.10;1.67;;;;;;;;;;4988617;28;20551;-84
2022/01/15 00:17:32;;;;;;;22.75;2.22;;;;;;;;;;5027034;28;20403;-82
2022/01/15 00:20:05;;;;;;;19.95;2.75;;;;;;;;;;5011800;28;20038;-83
2022/01/15 00:22:32;;;;;;;19.33;2.53;;;;;;;;;;5009689;28;20655;-85
2022/01/15 00:24:58;;;;;;;20.45;2.05;;;;;;;;;;4992254;28;20078;-84
2022/01/15 00:27:24;;;;;;;17.83;1.88;;;;;;;;;;4991360;28;20045;-85
2022/01/15 00:29:50;;;;;;;35.78;1.75;;;;;;;;;;4992975;28;20050;-84
2022/01/15 00:32:16;;;;;;;37.58;1.83;;;;;;;;;;5007599;28;20098;-85
2022/01/15 00:34:42;;;;;;;21.67;1.48;;;;;;;;;;4993159;28;20050;-85
2022/01/15 00:37:08;;;;;;;43.13;2.00;;;;;;;;;;5009177;28;20054;-83
2022/01/15 00:39:34;;;;;;;29.80;1.50;;;;;;;;;;5009436;28;20073;-85
2022/01/15 00:42:01;;;;;;;33.25;1.80;;;;;;;;;;5009134;28;20509;-84
2022/01/15 00:44:27;;;;;;;72.68;2.72;;;;;;;;;;5009319;28;20092;-85
2022/01/15 00:46:53;;;;;;;68.35;3.33;;;;;;;;;;4992177;28;20038;-84
2022/01/15 00:49:19;;;;;;;32.72;2.22;;;;;;;;;;5009186;28;20742;-84
2022/01/15 00:51:45;;;;;;;37.90;2.15;;;;;;;;;;4991994;28;20042;-84
2022/01/15 00:54:11;;;;;;;56.28;3.03;;;;;;;;;;5008397;28;20093;-84
2022/01/15 00:56:37;;;;;;;69.93;2.70;;;;;;;;;;5009614;28;20058;-84
2022/01/15 00:59:05;;;;;;;51.17;2.67;;;;;;;;;;4991442;28;20046;-85
2022/01/15 01:01:31;;;;;;;40.50;2.78;;;;;;;;;;4988181;28;20100;-82
2022/01/15 01:03:57;;;;;;;36.45;2.17;;;;;;;;;;4989074;28;20564;-81
2022/01/15 01:06:23;;;;;;;52.38;2.58;;;;;;;;;;4971683;28;20042;-82
2022/01/15 01:08:49;;;;;;;50.67;2.38;;;;;;;;;;4982866;28;20082;-82
2022/01/15 01:11:22;;;;;;;29.05;2.10;;;;;;;;;;5008380;28;20038;-84
2022/01/15 01:24:21;;;;;;;9.27;1.30;;;;;;;;;;4989512;28;20467;-83
2022/01/15 01:34:41;;;;;;;5.28;1.40;;;;;;;;;;4967459;28;20502;-83
2022/01/15 01:39:56;;;;;;;20.90;2.20;;;;;;;;;;4988981;28;20038;-82
2022/01/15 01:45:02;;;;;;;34.65;2.40;;;;;;;;;;4988147;28;20417;-84
2022/01/15 01:47:40;;;;;;;44.38;2.30;;;;;;;;;;4986971;28;20057;-83
2022/01/15 01:50:16;;;;;;;44.88;2.20;;;;;;;;;;4987076;28;20039;-83
2022/01/15 01:52:44;;;;;;;54.88;2.83;;;;;;;;;;4988387;28;20034;-83
2022/01/15 01:55:10;;;;;;;71.88;4.00;;;;;;;;;;5008257;28;20095;-83
2022/01/15 01:57:37;;;;;;;45.30;2.22;;;;;;;;;;4991264;28;20046;-84
2022/01/15 02:00:04;;;;;;;36.45;3.33;;;;;;;;;;5006464;28;20053;-84
2022/01/15 02:02:30;;;;;;;42.45;1.73;;;;;;;;;;4990675;28;20152;-83
2022/01/15 02:04:57;;;;;;;29.98;1.90;;;;;;;;;;5008026;28;20444;-84
2022/01/15 02:07:24;;;;;;;76.90;2.50;;;;;;;;;;5007513;28;20531;-85
2022/01/15 02:09:51;;;;;;;76.80;2.58;;;;;;;;;;5007903;28;20062;-83
2022/01/15 02:12:17;;;;;;;162.48;3.70;;;;;;;;;;5007593;28;20053;-83
2022/01/15 02:14:43;;;;;;;117.30;4.10;;;;;;;;;;5007566;28;20050;-85
2022/01/15 02:17:11;;;;;;;100.78;2.90;;;;;;;;;;4990139;28;20100;-84
2022/01/15 02:19:46;;;;;;;120.70;2.80;;;;;;;;;;4990460;28;20049;-83
2022/01/15 02:24:57;;;;;;;112.03;3.08;;;;;;;;;;5017729;28;20037;-84
2022/01/15 02:27:23;;;;;;;51.58;1.67;;;;;;;;;;5022280;28;20056;-83
2022/01/15 02:29:49;;;;;;;50.70;3.17;;;;;;;;;;5019704;28;20049;-84
2022/01/15 02:32:15;;;;;;;34.95;1.88;;;;;;;;;;5008168;28;20046;-84
2022/01/15 02:34:41;;;;;;;50.72;1.80;;;;;;;;;;5006685;28;20183;-82
2022/01/15 02:37:07;;;;;;;63.10;2.28;;;;;;;;;;5008292;28;20041;-83
2022/01/15 02:39:36;;;;;;;57.58;1.92;;;;;;;;;;5007100;28;20053;-84
2022/01/15 02:42:03;;;;;;;92.50;2.50;;;;;;;;;;5007858;28;20044;-84
2022/01/15 02:44:29;;;;;;;108.43;3.20;;;;;;;;;;4987618;28;20074;-84
2022/01/15 02:49:21;;;;;;;134.35;3.22;;;;;;;;;;5001986;28;20046;-84
2022/01/15 02:51:47;;;;;;;64.30;2.97;;;;;;;;;;5003972;28;20089;-83
2022/01/15 02:54:13;;;;;;;109.68;3.30;;;;;;;;;;4988203;28;20049;-84
2022/01/15 02:56:40;;;;;;;20.10;2.15;;;;;;;;;;4991347;28;20066;-85
2022/01/15 02:59:08;;;;;;;6.28;2.10;;;;;;;;;;4988062;28;20564;-84
2022/01/15 03:01:34;;;;;;;3.20;2.08;;;;;;;;;;4982085;28;20519;-83
2022/01/15 03:04:00;;;;;;;3.17;1.75;;;;;;;;;;4986156;28;20046;-83
2022/01/15 03:06:26;;;;;;;2.53;2.08;;;;;;;;;;4986183;28;20081;-84
2022/01/15 03:08:53;;;;;;;2.70;1.83;;;;;;;;;;4988317;28;20521;-84
2022/01/15 03:11:19;;;;;;;2.20;1.85;;;;;;;;;;4983788;28;20042;-84
2022/01/15 03:13:46;;;;;;;3.17;1.92;;;;;;;;;;4986972;28;20038;-84
2022/01/15 03:16:17;;;;;;;4.93;2.15;;;;;;;;;;4987684;28;20085;-85
2022/01/15 03:18:43;;;;;;;7.03;2.00;;;;;;;;;;4969387;28;20449;-84
2022/01/15 03:21:09;;;;;;;7.95;1.90;;;;;;;;;;4987551;28;20097;-84
2022/01/15 03:23:36;;;;;;;2.15;1.95;;;;;;;;;;5006180;28;20041;-85
2022/01/15 03:26:02;;;;;;;6.30;1.67;;;;;;;;;;4989891;28;20116;-83
2022/01/15 03:28:28;;;;;;;3.05;1.95;;;;;;;;;;4983033;28;20034;-82
2022/01/15 03:30:57;;;;;;;3.17;2.00;;;;;;;;;;4953551;28;20089;-85
2022/01/15 03:33:23;;;;;;;2.95;1.98;;;;;;;;;;4969865;28;20050;-82
2022/01/15 03:35:51;;;;;;;17.17;1.92;;;;;;;;;;4975430;28;20034;-85
2022/01/15 03:38:17;;;;;;;5.00;2.00;;;;;;;;;;4993727;28;20432;-84
2022/01/15 03:40:43;;;;;;;2.42;1.83;;;;;;;;;;5009064;28;20042;-85
2022/01/15 03:43:10;;;;;;;4.70;1.80;;;;;;;;;;4993353;28;20089;-83
2022/01/15 03:45:36;;;;;;;1.90;1.70;;;;;;;;;;4993061;28;20497;-85
2022/01/15 03:48:03;;;;;;;2.75;1.77;;;;;;;;;;4992410;28;20121;-85
2022/01/15 03:50:29;;;;;;;3.53;1.70;;;;;;;;;;4992944;28;20092;-84
2022/01/15 03:52:55;;;;;;;2.67;1.73;;;;;;;;;;5011044;28;20093;-84
2022/01/15 03:55:22;;;;;;;4.28;2.03;;;;;;;;;;5010844;28;20042;-86
2022/01/15 03:57:48;;;;;;;3.45;1.77;;;;;;;;;;5010699;28;20123;-84
2022/01/15 04:00:17;;;;;;;3.60;1.90;;;;;;;;;;5010849;28;20046;-84
2022/01/15 04:02:43;;;;;;;4.25;2.47;;;;;;;;;;5009643;28;20056;-84
2022/01/15 04:05:10;;;;;;;5.00;1.88;;;;;;;;;;5010433;28;20480;-85
2022/01/15 04:07:36;;;;;;;3.20;2.40;;;;;;;;;;5009998;28;20069;-84
2022/01/15 04:10:04;;;;;;;4.82;2.60;;;;;;;;;;4992842;28;20041;-83
2022/01/15 04:12:30;;;;;;;7.43;2.55;;;;;;;;;;5010111;28;20088;-84
2022/01/15 04:14:56;;;;;;;3.63;2.25;;;;;;;;;;5009446;28;20059;-83
2022/01/15 04:17:22;;;;;;;5.57;2.40;;;;;;;;;;5010576;28;20034;-84
2022/01/15 04:19:48;;;;;;;4.72;2.92;;;;;;;;;;5009766;28;20068;-85
2022/01/15 04:22:14;;;;;;;6.30;2.63;;;;;;;;;;4992401;28;20042;-84
2022/01/15 04:24:40;;;;;;;6.60;2.53;;;;;;;;;;4992133;28;20097;-86
2022/01/15 04:27:06;;;;;;;3.92;2.40;;;;;;;;;;4992980;28;20042;-84
2022/01/15 04:29:34;;;;;;;5.30;2.53;;;;;;;;;;5010197;28;20119;-86
2022/01/15 04:32:02;;;;;;;6.50;2.90;;;;;;;;;;5010048;28;20073;-86
2022/01/15 04:34:29;;;;;;;5.15;2.88;;;;;;;;;;4995267;28;20049;-87
2022/01/15 04:37:00;;;;;;;6.80;2.83;;;;;;;;;;5006084;28;20049;-86
2022/01/15 04:39:26;;;;;;;5.68;2.67;;;;;;;;;;5018788;28;20077;-84
2022/01/15 04:41:52;;;;;;;6.45;3.33;;;;;;;;;;5011916;28;20466;-85
2022/01/15 04:44:18;;;;;;;4.18;2.60;;;;;;;;;;5009716;28;20042;-84
2022/01/15 04:46:44;;;;;;;14.10;2.72;;;;;;;;;;5009090;28;20121;-86
2022/01/15 04:49:11;;;;;;;6.65;2.55;;;;;;;;;;5009257;28;20048;-85
2022/01/15 04:51:37;;;;;;;7.05;2.90;;;;;;;;;;5006244;28;20506;-84
2022/01/15 04:54:04;;;;;;;4.68;3.47;;;;;;;;;;4989250;28;20321;-86
2022/01/15 04:56:30;;;;;;;6.35;3.22;;;;;;;;;;4990726;28;20050;-86
2022/01/15 04:58:56;;;;;;;11.52;4.72;;;;;;;;;;4989499;28;20960;-87
2022/01/15 05:01:22;;;;;;;10.25;3.83;;;;;;;;;;4989611;28;20457;-85
2022/01/15 05:03:48;;;;;;;7.13;3.70;;;;;;;;;;4988399;28;20038;-84
2022/01/15 05:06:14;;;;;;;11.90;4.00;;;;;;;;;;4989583;28;20054;-84
2022/01/15 05:08:42;;;;;;;13.48;4.72;;;;;;;;;;5007169;28;20049;-84
2022/01/15 05:11:26;;;;;;;7.15;2.35;;;;;;;;;;5006929;28;20503;-83
2022/01/15 05:13:52;;;;;;;7.30;2.17;;;;;;;;;;4989838;28;20065;-84
2022/01/15 05:16:18;;;;;;;6.25;2.50;;;;;;;;;;4989604;28;20491;-84
2022/01/15 05:18:44;;;;;;;4.95;2.13;;;;;;;;;;5007474;28;20062;-85
2022/01/15 05:21:10;;;;;;;7.57;2.50;;;;;;;;;;4989590;28;20397;-84
2022/01/15 05:23:55;;;;;;;10.45;2.50;;;;;;;;;;4988861;28;20045;-86
2022/01/15 05:26:24;;;;;;;6.35;2.80;;;;;;;;;;4957829;28;20104;-86
2022/01/15 05:28:50;;;;;;;10.15;2.65;;;;;;;;;;4989697;28;20092;-83
2022/01/15 05:31:16;;;;;;;4.15;2.00;;;;;;;;;;4989886;28;20034;-84
2022/01/15 05:33:43;;;;;;;4.18;2.08;;;;;;;;;;4989611;28;20374;-85
2022/01/15 05:36:09;;;;;;;5.38;2.50;;;;;;;;;;5007538;28;20113;-84
2022/01/15 05:38:36;;;;;;;5.03;2.28;;;;;;;;;;5006932;28;20061;-83
2022/01/15 05:41:02;;;;;;;7.75;2.33;;;;;;;;;;4989752;28;20046;-85
2022/01/15 05:43:28;;;;;;;8.68;2.78;;;;;;;;;;4989675;28;20073;-85
2022/01/15 05:45:54;;;;;;;3.92;2.30;;;;;;;;;;5007172;28;20038;-84
2022/01/15 05:48:20;;;;;;;5.88;2.92;;;;;;;;;;4989881;28;20046;-84
2022/01/15 05:50:47;;;;;;;5.50;2.75;;;;;;;;;;4989295;28;20104;-86
2022/01/15 05:53:13;;;;;;;9.63;3.50;;;;;;;;;;4991378;28;20055;-85
2022/01/15 05:55:39;;;;;;;7.95;3.92;;;;;;;;;;4970075;28;20091;-85
2022/01/15 05:58:07;;;;;;;7.97;3.40;;;;;;;;;;4987234;28;20034;-85
2022/01/15 06:00:33;;;;;;;9.15;3.22;;;;;;;;;;4987220;28;20057;-85
2022/01/15 06:03:00;;;;;;;7.72;3.30;;;;;;;;;;4991843;28;20055;-84
2022/01/15 06:05:26;;;;;;;9.10;3.28;;;;;;;;;;4987797;28;20065;-84
2022/01/15 06:07:52;;;;;;;9.07;3.35;;;;;;;;;;4987300;28;20042;-83
2022/01/15 06:10:18;;;;;;;8.02;2.33;;;;;;;;;;4987175;28;20161;-83
2022/01/15 06:12:50;;;;;;;8.10;3.00;;;;;;;;;;4969550;28;20199;-85
2022/01/15 06:15:16;;;;;;;4.43;2.97;;;;;;;;;;4970812;28;20052;-85
2022/01/15 06:17:43;;;;;;;6.70;2.85;;;;;;;;;;4986990;28;20097;-82
2022/01/15 06:20:10;;;;;;;8.18;2.90;;;;;;;;;;5006914;28;20572;-86
2022/01/15 06:22:37;;;;;;;9.18;2.42;;;;;;;;;;5006617;28;20452;-84
2022/01/15 06:25:03;;;;;;;9.45;2.80;;;;;;;;;;5006226;28;20042;-84
2022/01/15 06:27:30;;;;;;;6.50;2.42;;;;;;;;;;5007287;28;20064;-85
2022/01/15 06:29:57;;;;;;;11.77;2.70;;;;;;;;;;5006505;28;20052;-85
2022/01/15 06:32:27;;;;;;;7.68;2.40;;;;;;;;;;5006849;28;20398;-85
2022/01/15 06:34:53;;;;;;;6.50;2.80;;;;;;;;;;4987253;28;20149;-84
2022/01/15 06:37:19;;;;;;;9.10;3.13;;;;;;;;;;4989632;28;20505;-84
2022/01/15 06:39:46;;;;;;;9.23;3.13;;;;;;;;;;5006081;28;20049;-85
2022/01/15 06:42:12;;;;;;;11.75;3.25;;;;;;;;;;4989317;28;20389;-85
2022/01/15 06:44:38;;;;;;;12.43;3.08;;;;;;;;;;5007598;28;20103;-84
2022/01/15 06:47:04;;;;;;;8.40;2.65;;;;;;;;;;5002887;28;20045;-85
2022/01/15 06:49:30;;;;;;;11.38;3.70;;;;;;;;;;5021515;28;20053;-84
2022/01/15 06:51:56;;;;;;;11.07;3.33;;;;;;;;;;5004547;28;20136;-85
2022/01/15 06:54:22;;;;;;;9.75;3.88;;;;;;;;;;5013588;28;20049;-84
2022/01/15 06:56:48;;;;;;;10.85;3.58;;;;;;;;;;5007663;28;20053;-85
2022/01/15 06:59:14;;;;;;;7.68;3.47;;;;;;;;;;4973554;28;20038;-84
2022/01/15 07:01:41;;;;;;;14.00;3.75;;;;;;;;;;5006332;28;20041;-85
2022/01/15 07:04:07;;;;;;;9.82;3.67;;;;;;;;;;4988573;28;20143;-85
2022/01/15 07:06:33;;;;;;;10.90;3.75;;;;;;;;;;4987229;28;20596;-84
2022/01/15 07:08:59;;;;;;;13.95;4.20;;;;;;;;;;4994375;28;20038;-85
2022/01/15 07:11:25;;;;;;;16.60;3.78;;;;;;;;;;5005639;28;20042;-86
2022/01/15 07:13:51;;;;;;;7.18;3.88;;;;;;;;;;5005165;28;20117;-85
2022/01/15 07:16:17;;;;;;;11.38;4.28;;;;;;;;;;5004926;28;20046;-83
2022/01/15 07:18:43;;;;;;;11.45;3.70;;;;;;;;;;5006019;28;20053;-83
2022/01/15 07:21:10;;;;;;;7.07;3.65;;;;;;;;;;4976498;28;20107;-83
2022/01/15 07:23:36;;;;;;;9.55;3.22;;;;;;;;;;5006898;28;20058;-83
2022/01/15 07:26:03;;;;;;;9.98;3.58;;;;;;;;;;5006749;28;20038;-83
2022/01/15 07:28:31;;;;;;;11.73;3.65;;;;;;;;;;5007023;28;20054;-83
2022/01/15 07:30:57;;;;;;;7.90;3.97;;;;;;;;;;5006271;28;20204;-83
2022/01/15 07:33:23;;;;;;;15.32;5.13;;;;;;;;;;5006303;28;20038;-83
2022/01/15 07:35:50;;;;;;;13.43;4.82;;;;;;;;;;5006883;28;20046;-83
2022/01/15 07:38:17;;;;;;;10.60;4.90;;;;;;;;;;5007025;28;21032;-83
2022/01/15 07:40:43;;;;;;;18.95;5.53;;;;;;;;;;5005222;28;20060;-83
2022/01/15 07:43:10;;;;;;;9.30;4.35;;;;;;;;;;5007815;28;20053;-82
2022/01/15 07:45:36;;;;;;;9.25;4.40;;;;;;;;;;5007896;28;20042;-83
2022/01/15 07:48:02;;;;;;;24.98;5.07;;;;;;;;;;4989328;28;20475;-79
2022/01/15 07:50:29;;;;;;;12.18;5.57;;;;;;;;;;5005309;28;20084;-80
2022/01/15 07:52:56;;;;;;;13.93;5.38;;;;;;;;;;5006409;28;20117;-80
2022/01/15 07:55:23;;;;;;;11.70;4.97;;;;;;;;;;5005426;28;20049;-80
2022/01/15 07:57:49;;;;;;;11.82;4.85;;;;;;;;;;5009772;28;20138;-80
2022/01/15 08:00:16;;;;;;;9.13;4.95;;;;;;;;;;5006682;28;20072;-80
2022/01/15 08:02:42;;;;;;;10.32;4.57;;;;;;;;;;5004615;28;20033;-80
2022/01/15 08:05:09;;;;;;;14.18;4.93;;;;;;;;;;5005780;28;20096;-80
2022/01/15 08:07:35;;;;;;;15.35;5.50;;;;;;;;;;5004383;28;20042;-80
2022/01/15 08:10:03;;;;;;;11.90;5.55;;;;;;;;;;5004455;28;20123;-80
2022/01/15 08:12:30;;;;;;;13.00;5.45;;;;;;;;;;4987311;28;20156;-81
2022/01/15 08:14:56;;;;;;;11.73;5.35;;;;;;;;;;5003764;28;20052;-80
2022/01/15 08:17:22;;;;;;;9.88;4.60;;;;;;;;;;5005519;28;20049;-81
2022/01/15 08:19:48;;;;;;;8.15;4.88;;;;;;;;;;5005231;28;20096;-80
2022/01/15 08:22:14;;;;;;;8.73;4.88;;;;;;;;;;5009181;28;20132;-80
2022/01/15 08:24:40;;;;;;;10.82;5.50;;;;;;;;;;5008111;28;20046;-80
2022/01/15 08:27:07;;;;;;;11.50;5.85;;;;;;;;;;5009114;28;20475;-80
2022/01/15 08:29:33;;;;;;;12.75;5.97;;;;;;;;;;5008523;28;20037;-80
2022/01/15 08:31:59;;;;;;;15.95;6.03;;;;;;;;;;5008506;28;20041;-79
2022/01/15 08:34:25;;;;;;;22.20;7.72;;;;;;;;;;5008925;28;20116;-80
2022/01/15 08:36:51;;;;;;;20.33;7.35;;;;;;;;;;5006932;28;20046;-80
2022/01/15 08:39:17;;;;;;;26.55;9.18;;;;;;;;;;5008769;28;20049;-80
2022/01/15 08:41:48;;;;;;;23.90;9.73;;;;;;;;;;5006693;28;20405;-79
2022/01/15 08:44:15;;;;;;;25.95;9.85;;;;;;;;;;5008082;28;20521;-79
2022/01/15 08:46:41;;;;;;;24.77;9.57;;;;;;;;;;5007331;28;20133;-81
2022/01/15 08:49:07;;;;;;;29.88;9.98;;;;;;;;;;5010885;28;20037;-80
2022/01/15 08:51:33;;;;;;;27.33;10.70;;;;;;;;;;5006741;28;20121;-80
2022/01/15 08:53:59;;;;;;;34.80;11.02;;;;;;;;;;4970854;28;20047;-79
2022/01/15 08:56:25;;;;;;;26.40;10.23;;;;;;;;;;4990917;28;20112;-79
2022/01/15 08:58:51;;;;;;;27.83;10.32;;;;;;;;;;5023136;28;20042;-80
2022/01/15 09:01:17;;;;;;;29.58;11.23;;;;;;;;;;5008977;28;20034;-80
2022/01/15 09:03:44;;;;;;;23.13;9.93;;;;;;;;;;5019499;28;20088;-80
2022/01/15 09:06:28;;;;;;;24.27;10.40;;;;;;;;;;5012493;28;20046;-80
2022/01/15 09:08:55;;;;;;;30.65;10.82;;;;;;;;;;5028817;28;20072;-80
2022/01/15 09:11:21;;;;;;;30.00;11.32;;;;;;;;;;5022625;28;20073;-80
2022/01/15 09:13:48;;;;;;;22.73;10.85;;;;;;;;;;5008073;28;20038;-80
2022/01/15 09:16:14;;;;;;;20.02;9.90;;;;;;;;;;5008224;28;20121;-82
2022/01/15 09:18:40;;;;;;;22.92;10.80;;;;;;;;;;4991902;28;20120;-82
2022/01/15 09:21:06;;;;;;;20.88;9.70;;;;;;;;;;5006662;28;20516;-80
2022/01/15 09:23:32;;;;;;;26.55;11.32;;;;;;;;;;5009004;28;20128;-80
2022/01/15 09:25:59;;;;;;;24.55;10.48;;;;;;;;;;5008194;28;20078;-80
2022/01/15 09:31:12;;;;;;;17.08;8.50;;;;;;;;;;4990927;28;20050;-81
2022/01/15 09:33:38;;;;;;;16.48;7.78;;;;;;;;;;5007723;28;20081;-81
2022/01/15 09:36:04;;;;;;;13.90;6.25;;;;;;;;;;4994321;28;20137;-81
2022/01/15 09:38:31;;;;;;;7.35;4.75;;;;;;;;;;4989082;28;20046;-80
2022/01/15 09:40:57;;;;;;;7.70;4.25;;;;;;;;;;5007023;28;20042;-80
2022/01/15 09:43:23;;;;;;;6.53;4.47;;;;;;;;;;5006992;28;20462;-80
2022/01/15 09:45:49;;;;;;;6.63;4.15;;;;;;;;;;5008104;28;20093;-81
2022/01/15 09:48:16;;;;;;;9.43;5.25;;;;;;;;;;4990097;28;20084;-80
2022/01/15 09:50:44;;;;;;;8.73;5.78;;;;;;;;;;4957675;28;20125;-80
2022/01/15 09:53:13;;;;;;;11.30;7.18;;;;;;;;;;4983430;28;20069;-80
2022/01/15 09:55:39;;;;;;;7.93;5.47;;;;;;;;;;4987816;28;20089;-80
2022/01/15 09:58:06;;;;;;;6.95;4.40;;;;;;;;;;4989311;28;20579;-80
2022/01/15 10:00:32;;;;;;;7.88;4.40;;;;;;;;;;4988485;28;20042;-81
2022/01/15 10:02:58;;;;;;;5.82;3.00;;;;;;;;;;4995975;28;20382;-80
2022/01/15 10:05:25;;;;;;;4.18;2.97;;;;;;;;;;5007737;28;20045;-80
2022/01/15 10:07:57;;;;;;;4.97;2.85;;;;;;;;;;5007669;28;20077;-80
2022/01/15 10:10:24;;;;;;;4.85;3.17;;;;;;;;;;5008418;28;20050;-80
2022/01/15 10:12:50;;;;;;;4.82;3.38;;;;;;;;;;5007099;28;20042;-80
2022/01/15 10:15:17;;;;;;;6.30;3.40;;;;;;;;;;5008326;28;20049;-80
2022/01/15 10:17:43;;;;;;;5.35;3.75;;;;;;;;;;5007272;28;20034;-80
2022/01/15 10:20:11;;;;;;;6.43;4.03;;;;;;;;;;5007257;28;20076;-79
2022/01/15 10:22:41;;;;;;;9.80;4.90;;;;;;;;;;5007886;28;20034;-80
2022/01/15 10:25:11;;;;;;;8.30;4.60;;;;;;;;;;5009378;28;20540;-80
2022/01/15 10:27:44;;;;;;;8.15;4.45;;;;;;;;;;5008576;28;20110;-80
2022/01/15 10:30:12;;;;;;;9.93;5.53;;;;;;;;;;5007526;28;20374;-80
2022/01/15 10:32:39;;;;;;;9.25;5.07;;;;;;;;;;5008113;28;20293;-80
2022/01/15 10:35:13;;;;;;;7.35;4.63;;;;;;;;;;5006969;28;20065;-80
2022/01/15 10:37:56;;;;;;;9.15;4.78;;;;;;;;;;4990024;28;20382;-80
2022/01/15 10:40:23;;;;;;;10.70;5.93;;;;;;;;;;5007690;28;20046;-80
2022/01/15 10:42:55;;;;;;;7.93;4.70;;;;;;;;;;5006517;28;20053;-81
2022/01/15 10:45:21;;;;;;;8.90;6.22;;;;;;;;;;5007789;28;20046;-81
2022/01/15 10:47:49;;;;;;;10.27;5.28;;;;;;;;;;5006341;28;20034;-81
2022/01/15 10:50:20;;;;;;;9.23;5.75;;;;;;;;;;5007584;28;20077;-81
2022/01/15 10:52:46;;;;;;;9.85;6.38;;;;;;;;;;5003488;28;20042;-81
2022/01/15 10:55:13;;;;;;;8.50;5.90;;;;;;;;;;5007191;28;20085;-81
2022/01/15 10:57:40;;;;;;;11.90;6.00;;;;;;;;;;4990517;28;20048;-81
2022/01/15 11:00:06;;;;;;;9.75;6.03;;;;;;;;;;4988472;28;20101;-80
2022/01/15 11:02:33;;;;;;;11.20;6.35;;;;;;;;;;5007509;28;20400;-81
2022/01/15 11:04:59;;;;;;;8.82;6.03;;;;;;;;;;4989097;28;20099;-79
2022/01/15 11:07:25;;;;;;;10.48;6.65;;;;;;;;;;5010520;28;20042;-81
2022/01/15 11:09:53;;;;;;;11.60;7.07;;;;;;;;;;5022477;28;20050;-80
2022/01/15 11:12:19;;;;;;;14.15;7.15;;;;;;;;;;5024049;28;20060;-81
2022/01/15 11:14:45;;;;;;;14.80;6.68;;;;;;;;;;5013828;28;20049;-80
2022/01/15 11:17:12;;;;;;;12.40;7.03;;;;;;;;;;5007723;28;20041;-81
2022/01/15 11:19:39;;;;;;;12.93;7.60;;;;;;;;;;5006148;28;20042;-82
2022/01/15 11:22:07;;;;;;;10.18;6.50;;;;;;;;;;5005531;28;20045;-81
2022/01/15 11:24:33;;;;;;;10.52;6.60;;;;;;;;;;5007057;28;20034;-80
2022/01/15 11:27:00;;;;;;;11.70;6.65;;;;;;;;;;4988662;28;20520;-81
2022/01/15 11:29:27;;;;;;;11.70;7.57;;;;;;;;;;5007201;28;20050;-81
2022/01/15 11:31:56;;;;;;;13.68;8.38;;;;;;;;;;4988713;28;20544;-80
2022/01/15 11:34:23;;;;;;;14.07;8.02;;;;;;;;;;5006550;28;20089;-80
2022/01/15 11:36:50;;;;;;;16.35;8.18;;;;;;;;;;5006700;28;20046;-80
2022/01/15 11:39:19;;;;;;;12.88;8.68;;;;;;;;;;4988230;28;20053;-80
2022/01/15 11:41:48;;;;;;;17.25;9.77;;;;;;;;;;5007222;28;20042;-80
2022/01/15 11:44:18;;;;;;;15.77;9.82;;;;;;;;;;5005934;28;20096;-81
2022/01/15 11:46:49;;;;;;;16.58;10.23;;;;;;;;;;5014884;28;20042;-80
2022/01/15 11:49:24;;;;;;;16.27;9.15;;;;;;;;;;5006742;28;20057;-80
2022/01/15 11:51:50;;;;;;;16.67;10.40;;;;;;;;;;5000913;28;20042;-80
2022/01/15 11:54:16;;;;;;;18.10;11.60;;;;;;;;;;4987140;28;20054;-80
2022/01/15 11:56:43;;;;;;;19.88;10.93;;;;;;;;;;4989878;28;20152;-80
2022/01/15 11:59:33;;;;;;;20.92;10.80;;;;;;;;;;4942503;28;20591;-81
2022/01/15 12:02:05;;;;;;;16.48;10.02;;;;;;;;;;4982700;28;20050;-81
2022/01/15 12:04:36;;;;;;;18.50;9.95;;;;;;;;;;4995203;28;20041;-81
2022/01/15 12:07:02;;;;;;;18.17;11.20;;;;;;;;;;5008957;28;20046;-80
2022/01/15 12:09:41;;;;;;;20.58;11.05;;;;;;;;;;4992310;28;20501;-81
2022/01/15 12:14:52;;;;;;;17.25;10.10;;;;;;;;;;5011479;28;20394;-80
2022/01/15 12:17:51;;;;;;;21.50;12.57;;;;;;;;;;5012342;28;20042;-78
2022/01/15 12:20:18;;;;;;;19.67;12.05;;;;;;;;;;5009163;28;20065;-81
2022/01/15 12:22:51;;;;;;;21.25;12.82;;;;;;;;;;5011205;28;20053;-80
2022/01/15 12:25:17;;;;;;;26.05;14.00;;;;;;;;;;5011355;28;20137;-81
2022/01/15 12:28:03;;;;;;;24.55;16.33;;;;;;;;;;5010690;28;20096;-79
2022/01/15 12:30:35;;;;;;;30.83;20.38;;;;;;;;;;4992917;28;20042;-78
2022/01/15 12:33:03;;;;;;;32.97;23.10;;;;;;;;;;5013218;28;20057;-81
2022/01/15 12:35:31;;;;;;;39.28;27.02;;;;;;;;;;5014320;28;20053;-80
2022/01/15 12:37:57;;;;;;;43.00;32.05;;;;;;;;;;5013449;28;20507;-80
2022/01/15 12:40:29;;;;;;;46.92;32.50;;;;;;;;;;5011249;28;20041;-81
2022/01/15 12:42:59;;;;;;;52.90;38.88;;;;;;;;;;5012791;28;20460;-80
2022/01/15 12:45:26;;;;;;;50.83;38.95;;;;;;;;;;5010984;28;20045;-80
2022/01/15 12:47:52;;;;;;;52.05;38.03;;;;;;;;;;4992818;28;20041;-80
2022/01/15 12:50:18;;;;;;;55.67;43.53;;;;;;;;;;5009221;28;20505;-81
2022/01/15 12:52:47;;;;;;;50.15;39.63;;;;;;;;;;5009902;28;20042;-81
2022/01/15 12:55:16;;;;;;;47.03;37.72;;;;;;;;;;4979514;28;20045;-80
2022/01/15 12:57:47;;;;;;;45.03;36.03;;;;;;;;;;4991094;28;20092;-81
2022/01/15 13:00:13;;;;;;;48.45;37.47;;;;;;;;;;5008334;28;20045;-81
2022/01/15 13:02:39;;;;;;;47.40;36.13;;;;;;;;;;4990286;28;20045;-80
2022/01/15 13:05:05;;;;;;;43.83;32.95;;;;;;;;;;4979971;28;20058;-81
2022/01/15 13:07:50;;;;;;;45.42;32.13;;;6.10;99.90;;;;;;5008741;28;20591;-81
2022/01/15 13:10:45;;;;;;;44.28;31.77;;;;;;;;;;4969435;28;20053;-80
2022/01/15 13:13:14;;;;;;;44.28;30.50;;;;;;;;;;4969162;28;20517;-81
2022/01/15 13:15:40;;;;;;;43.20;29.05;;;;;;;;;;4966865;28;20047;-81
2022/01/15 13:18:10;;;;;;;36.17;20.83;;;;;;;;;;4956676;28;20076;-80
2022/01/15 13:20:37;;;;;;;43.88;23.27;;;;;;;;;;4962986;28;20139;-80
2022/01/15 13:23:03;;;;;;;40.60;24.40;;;;;;;;;;4964317;28;20110;-80
2022/01/15 13:25:30;;;;;;;42.90;25.92;;;;;;;;;;4972208;28;20063;-80
2022/01/15 13:27:57;;;;;;;44.47;27.60;;;;;;;;;;4967880;28;20035;-80
2022/01/15 13:30:24;;;;;;;47.92;31.50;;;;;;;;;;4967367;28;20578;-81
2022/01/15 13:33:01;;;;;;;43.20;27.55;;;;;;;;;;4966412;28;20141;-81
2022/01/15 13:35:34;;;;;;;49.33;31.13;;;;;;;;;;4951668;28;20063;-80
2022/01/15 13:38:02;;;;;;;40.55;25.00;;;;;;;;;;4950616;28;20057;-79
2022/01/15 13:40:28;;;;;;;46.55;26.85;;;;;;;;;;4952847;28;20051;-80
2022/01/15 13:42:54;;;;;;;42.90;26.20;;;;;;;;;;5007410;28;20576;-81
2022/01/15 13:45:20;;;;;;;43.35;26.88;;;;;;;;;;4974075;28;20157;-81
2022/01/15 13:47:47;;;;;;;41.15;26.63;;;;;;;;;;5015500;28;20057;-80
2022/01/15 13:53:14;;;;;;;40.63;26.27;;;;;;;;;;5006621;28;20406;-79
2022/01/15 13:55:40;;;;;;;37.75;23.65;;;;;;;;;;5005829;28;20493;-80
2022/01/15 13:58:09;;;;;;;42.72;26.48;;;;;;;;;;5005432;28;20058;-79
2022/01/15 14:00:35;;;;;;;40.67;25.48;;;;;;;;;;5007397;28;20030;-79
2022/01/15 14:03:08;;;;;;;38.15;26.15;;;;;;;;;;5005987;28;20038;-81
2022/01/15 14:05:36;;;;;;;45.50;28.92;;;;;;;;;;5007264;28;20042;-80
2022/01/15 14:08:12;;;;;;;47.80;32.75;;;;;;;;;;4988164;28;20351;-80
2022/01/15 14:10:40;;;;;;;40.83;30.08;;;;;;;;;;5004337;28;20403;-80
2022/01/15 14:13:08;;;;;;;43.00;30.95;;;;;;;;;;5000927;28;20092;-81
2022/01/15 14:15:44;;;;;;;37.40;26.63;;;;;;;;;;5005980;28;20030;-80
2022/01/15 14:18:13;;;;;;;41.67;27.50;;;;;;;;;;4992817;28;20038;-80
2022/01/15 14:23:34;;;;;;;38.97;28.63;;;;;;;;;;4988538;28;20644;-81
2022/01/15 14:26:14;;;;;;;35.90;26.33;;;;;;;;;;5006023;28;20476;-80
2022/01/15 14:28:41;;;;;;;33.20;24.52;;;;;;;;;;5003842;28;20038;-80
2022/01/15 14:31:07;;;;;;;34.78;25.42;;;;;;;;;;4988255;28;20070;-80
2022/01/15 14:33:33;;;;;;;37.65;26.70;;;;;;;;;;5004537;28;20045;-81
2022/01/15 14:35:59;;;;;;;33.67;25.77;;;;;;;;;;5004103;28;20173;-80
2022/01/15 14:38:26;;;;;;;39.75;27.98;;;;;;;;;;5006206;28;20453;-79
2022/01/15 14:40:52;;;;;;;36.90;27.95;;;;;;;;;;4987162;28;20052;-81
2022/01/15 14:43:18;;;;;;;34.92;26.02;;;;;;;;;;5005071;28;20069;-81
2022/01/15 14:45:44;;;;;;;33.30;24.38;;;;;;;;;;5003373;28;20125;-81
2022/01/15 14:48:11;;;;;;;34.72;25.50;;;;;;;;;;5005795;28;20072;-81
2022/01/15 14:50:37;;;;;;;35.50;26.25;;;;;;;;;;5002817;28;20034;-80
2022/01/15 14:53:03;;;;;;;38.08;28.00;;;;;;;;;;5005440;28;20077;-80
2022/01/15 14:55:29;;;;;;;38.50;28.25;;;;;;;;;;5004345;28;20133;-80
2022/01/15 14:57:55;;;;;;;37.55;27.00;;;;;;;;;;4987647;28;20042;-80
2022/01/15 15:00:21;;;;;;;33.92;24.13;;;;;;;;;;4990265;28;20042;-80
2022/01/15 15:02:48;;;;;;;27.50;20.27;;;;;;;;;;4986227;28;20045;-80
2022/01/15 15:05:14;;;;;;;26.83;19.75;;;;;;;;;;4986857;28;20099;-80
2022/01/15 15:07:40;;;;;;;23.60;18.20;;;;;;;;;;5004159;28;20038;-80
2022/01/15 15:10:07;;;;;;;24.42;17.27;;;;;;;;;;5003178;28;20548;-80
2022/01/15 15:12:37;;;;;;;25.15;18.95;;;;;;;;;;4986062;28;20524;-81